createdAt,value
2018-11-01T13:03:47.666Z,2444.00
2018-11-01T13:04:47.659Z,2412.00
2018-11-01T13:05:47.651Z,2340.00
2018-11-01T13:06:47.643Z,2344.00
2018-11-01T13:07:47.620Z,2176.00
2018-11-01T13:08:47.611Z,2236.00
2018-11-01T13:09:47.642Z,2092.00
2018-11-01T13:10:47.653Z,2068.00
2018-11-01T13:11:47.616Z,2088.00
2018-11-01T13:12:47.610Z,2080.00
2018-11-01T13:13:47.594Z,2244.00
2018-11-01T13:14:47.589Z,2288.00
2018-11-01T13:15:47.637Z,2388.00
2018-11-01T13:16:47.582Z,2408.00
2018-11-01T13:17:47.657Z,2412.00
2018-11-01T13:18:47.573Z,2596.00
2018-11-01T13:19:47.880Z,2520.00
2018-11-01T13:20:47.562Z,2492.00
2018-11-01T13:21:47.574Z,2724.00
2018-11-01T13:22:47.561Z,2444.00
2018-11-01T13:23:47.580Z,2592.00
2018-11-01T13:24:47.560Z,2248.00
2018-11-01T13:25:47.565Z,2148.00
2018-11-01T13:26:47.556Z,1996.00
2018-11-01T13:27:47.574Z,2120.00
2018-11-01T13:28:47.556Z,2280.00
2018-11-01T13:29:47.563Z,2356.00
2018-11-01T13:30:47.538Z,2380.00
2018-11-01T13:31:47.547Z,2328.00
2018-11-01T13:32:47.536Z,2468.00
2018-11-01T13:33:47.599Z,2664.00
2018-11-01T13:34:47.697Z,2400.00
2018-11-01T13:35:47.597Z,2468.00
2018-11-01T13:36:47.594Z,2760.00
2018-11-01T13:37:47.527Z,3160.00
2018-11-01T13:38:47.547Z,3064.00
2018-11-01T13:39:47.732Z,3096.00
2018-11-01T13:40:47.901Z,2320.00
2018-11-01T13:41:47.583Z,1816.00
2018-11-01T13:42:48.328Z,2316.00
2018-11-01T13:43:47.791Z,2548.00
2018-11-01T13:44:47.525Z,2132.00
2018-11-01T13:45:47.529Z,1480.00
2018-11-01T13:46:47.544Z,1720.00
2018-11-01T13:47:47.631Z,1504.00
2018-11-01T13:48:47.524Z,1524.00
2018-11-01T13:49:47.572Z,1500.00
2018-11-01T13:50:47.520Z,1596.00
2018-11-01T13:51:47.528Z,1740.00
2018-11-01T13:52:47.524Z,1780.00
2018-11-01T13:53:47.520Z,1524.00
2018-11-01T13:54:47.677Z,2028.00
2018-11-01T13:55:47.543Z,2172.00
2018-11-01T13:56:47.523Z,2964.00
2018-11-01T13:57:47.574Z,3736.00
2018-11-01T13:58:47.519Z,3644.00
2018-11-01T13:59:47.510Z,2364.00
2018-11-01T14:00:47.525Z,2088.00
2018-11-01T14:01:47.580Z,2152.00
2018-11-01T14:02:47.775Z,2216.00
2018-11-01T14:03:47.511Z,1972.00
2018-11-01T14:04:47.503Z,2316.00
2018-11-01T14:05:47.571Z,2388.00
2018-11-01T14:06:47.535Z,2256.00
2018-11-01T14:07:47.531Z,2052.00
2018-11-01T14:08:47.513Z,1848.00
2018-11-01T14:09:47.513Z,1652.00
2018-11-01T14:10:47.520Z,1660.00
2018-11-01T14:11:47.492Z,1704.00
2018-11-01T14:12:47.524Z,1312.00
2018-11-01T14:13:47.715Z,1508.00
2018-11-01T14:14:47.604Z,1804.00
2018-11-01T14:15:47.506Z,1944.00
2018-11-01T14:16:47.498Z,2180.00
2018-11-01T14:17:47.548Z,1828.00
2018-11-01T14:18:47.550Z,1904.00
2018-11-01T14:19:47.512Z,1712.00
2018-11-01T14:20:47.547Z,2584.00
2018-11-01T14:21:47.491Z,1524.00
2018-11-01T14:22:47.499Z,1404.00
2018-11-01T14:23:47.509Z,2064.00
2018-11-01T14:24:47.547Z,2712.00
2018-11-01T14:25:47.509Z,3616.00
2018-11-01T14:26:47.505Z,3492.00
2018-11-01T14:27:47.472Z,4196.00
2018-11-01T14:28:47.481Z,3552.00
2018-11-01T14:29:47.470Z,1404.00
2018-11-01T14:30:47.495Z,1352.00
2018-11-01T14:31:47.522Z,1260.00
2018-11-01T14:32:47.487Z,1392.00
2018-11-01T14:33:47.568Z,1532.00
2018-11-01T14:34:47.493Z,1292.00
2018-11-01T14:35:47.495Z,1168.00
2018-11-01T14:36:47.488Z,1036.00
2018-11-01T14:37:47.562Z,1036.00
2018-11-01T14:38:47.474Z,1096.00
2018-11-01T14:39:47.481Z,1184.00
2018-11-01T14:40:47.470Z,1312.00
2018-11-01T14:41:47.472Z,3132.00
2018-11-01T14:42:47.468Z,2312.00
2018-11-01T14:43:47.489Z,3284.00
2018-11-01T14:44:47.466Z,1588.00
2018-11-01T14:45:47.487Z,1664.00
2018-11-01T14:46:47.537Z,1588.00
2018-11-01T14:47:47.468Z,1496.00
2018-11-01T14:48:47.468Z,1444.00
2018-11-01T14:49:47.470Z,1372.00
2018-11-01T14:50:47.514Z,1372.00
2018-11-01T14:51:47.522Z,1504.00
2018-11-01T14:52:47.575Z,1476.00
2018-11-01T14:53:47.639Z,2104.00
2018-11-01T14:54:48.775Z,2780.00
2018-11-01T14:55:48.958Z,2764.00
2018-11-01T14:56:48.606Z,1740.00
2018-11-01T14:57:48.685Z,1612.00
2018-11-01T14:58:48.642Z,1436.00
2018-11-01T14:59:48.527Z,1460.00
2018-11-01T15:00:47.462Z,1508.00
2018-11-01T15:01:47.479Z,1828.00
2018-11-01T15:02:47.450Z,1388.00
2018-11-01T15:03:47.506Z,1348.00
2018-11-01T15:04:47.430Z,1344.00
2018-11-01T15:05:47.480Z,1372.00
2018-11-01T15:06:47.460Z,1400.00
2018-11-01T15:07:47.453Z,1368.00
2018-11-01T15:08:47.447Z,1376.00
2018-11-01T15:09:47.752Z,1316.00
2018-11-01T15:10:47.419Z,1280.00
2018-11-01T15:11:47.428Z,1432.00
2018-11-01T15:12:47.456Z,2044.00
2018-11-01T15:13:47.490Z,1612.00
2018-11-01T15:14:47.446Z,1700.00
2018-11-01T15:15:47.531Z,2712.00
2018-11-01T15:16:47.450Z,2400.00
2018-11-01T15:17:47.427Z,2100.00
2018-11-01T15:18:47.431Z,3156.00
2018-11-01T15:19:47.419Z,2208.00
2018-11-01T15:20:47.509Z,3088.00
2018-11-01T15:21:47.467Z,2024.00
2018-11-01T15:22:47.419Z,2444.00
2018-11-01T15:23:47.427Z,1624.00
2018-11-01T15:24:47.413Z,1860.00
2018-11-01T15:25:47.527Z,1672.00
2018-11-01T15:26:47.468Z,2000.00
2018-11-01T15:27:47.482Z,1780.00
2018-11-01T15:28:47.430Z,1516.00
2018-11-01T15:29:47.418Z,1304.00
2018-11-01T15:30:47.530Z,1160.00
2018-11-01T15:31:47.410Z,1148.00
2018-11-01T15:32:47.463Z,1228.00
2018-11-01T15:33:47.621Z,1300.00
2018-11-01T15:34:47.421Z,1288.00
2018-11-01T15:35:47.518Z,1212.00
2018-11-01T15:36:47.423Z,1192.00
2018-11-01T15:37:47.458Z,1168.00
2018-11-01T15:38:47.465Z,1228.00
2018-11-01T15:39:47.489Z,1288.00
2018-11-01T15:40:47.520Z,1364.00
2018-11-01T15:41:47.414Z,1324.00
2018-11-01T15:42:47.411Z,1236.00
2018-11-01T15:43:47.433Z,1120.00
2018-11-01T15:44:47.415Z,1048.00
2018-11-01T15:45:47.560Z,972.00
2018-11-01T15:46:47.383Z,872.00
2018-11-01T15:47:47.451Z,716.00
2018-11-01T15:48:47.408Z,628.00
2018-11-01T15:49:47.408Z,516.00
2018-11-01T15:50:47.650Z,404.00
2018-11-01T15:51:47.458Z,352.00
2018-11-01T15:52:47.382Z,340.00
2018-11-01T15:53:47.376Z,344.00
2018-11-01T15:54:47.393Z,328.00
2018-11-01T15:55:47.484Z,304.00
2018-11-01T15:56:47.381Z,296.00
2018-11-01T15:57:47.380Z,324.00
2018-11-01T15:58:47.381Z,356.00
2018-11-01T15:59:47.370Z,360.00
2018-11-01T16:00:47.358Z,400.00
2018-11-01T16:01:47.364Z,484.00
2018-11-01T16:02:47.408Z,556.00
2018-11-01T16:03:47.425Z,604.00
2018-11-01T16:04:47.348Z,652.00
2018-11-01T16:05:47.341Z,720.00
2018-11-01T16:06:47.453Z,796.00
2018-11-01T16:07:47.391Z,916.00
2018-11-01T16:08:47.343Z,1036.00
2018-11-01T16:09:47.387Z,1104.00
2018-11-01T16:10:47.329Z,1200.00
2018-11-01T16:11:47.416Z,1260.00
2018-11-01T16:12:47.331Z,1312.00
2018-11-01T16:13:47.530Z,1392.00
2018-11-01T16:14:47.333Z,1492.00
2018-11-01T16:15:47.325Z,1552.00
2018-11-01T16:16:47.313Z,1544.00
2018-11-01T16:17:47.312Z,1548.00
2018-11-01T16:18:47.319Z,1532.00
2018-11-01T16:19:47.406Z,1492.00
2018-11-01T16:20:47.304Z,1524.00
2018-11-01T16:21:47.288Z,1500.00
2018-11-01T16:22:47.273Z,1484.00
2018-11-01T16:23:47.337Z,1456.00
2018-11-01T16:24:47.292Z,1432.00
2018-11-01T16:25:47.265Z,1420.00
2018-11-01T16:26:47.299Z,1396.00
2018-11-01T16:27:47.271Z,1392.00
2018-11-01T16:28:47.282Z,1380.00
2018-11-01T16:29:47.281Z,1380.00
2018-11-01T16:30:47.266Z,1412.00
2018-11-01T16:31:47.260Z,1416.00
2018-11-01T16:32:47.245Z,1428.00
2018-11-01T16:33:47.247Z,1404.00
2018-11-01T16:34:47.253Z,1428.00
2018-11-01T16:35:47.223Z,1412.00
2018-11-01T16:36:47.282Z,1384.00
2018-11-01T16:37:47.222Z,1384.00
2018-11-01T16:38:47.228Z,1384.00
2018-11-01T16:39:47.206Z,1388.00
2018-11-01T16:40:47.259Z,1368.00
2018-11-01T16:41:47.188Z,1360.00
2018-11-01T16:42:47.435Z,1340.00
2018-11-01T16:43:47.203Z,1316.00
2018-11-01T16:44:47.213Z,1272.00
2018-11-01T16:45:47.210Z,1264.00
2018-11-01T16:46:47.186Z,1248.00
2018-11-01T16:47:47.184Z,1264.00
2018-11-01T16:48:47.176Z,1284.00
2018-11-01T16:49:47.208Z,1288.00
2018-11-01T16:50:47.228Z,1312.00
2018-11-01T16:51:47.174Z,1308.00
2018-11-01T16:52:47.468Z,1320.00
2018-11-01T16:53:47.202Z,1324.00
2018-11-01T16:54:47.141Z,1304.00
2018-11-01T16:55:47.149Z,1280.00
2018-11-01T16:56:47.142Z,1268.00
2018-11-01T16:57:47.140Z,1268.00
2018-11-01T16:58:47.151Z,1220.00
2018-11-01T16:59:47.139Z,1212.00
2018-11-01T17:00:47.132Z,1260.00
2018-11-01T17:01:47.120Z,1276.00
2018-11-01T17:02:47.169Z,1292.00
2018-11-01T17:03:47.215Z,1288.00
2018-11-01T17:04:47.104Z,1252.00
2018-11-01T17:05:47.145Z,1224.00
2018-11-01T17:06:47.113Z,1200.00
2018-11-01T17:07:47.103Z,1184.00
2018-11-01T17:08:47.261Z,1156.00
2018-11-01T17:09:47.101Z,1144.00
2018-11-01T17:10:47.089Z,1112.00
2018-11-01T17:11:47.103Z,1064.00
2018-11-01T17:12:47.071Z,1016.00
2018-11-01T17:13:47.093Z,968.00
2018-11-01T17:14:47.054Z,940.00
2018-11-01T17:15:47.054Z,944.00
2018-11-01T17:16:47.117Z,976.00
2018-11-01T17:17:47.049Z,1036.00
2018-11-01T17:18:47.040Z,1100.00
2018-11-01T17:19:47.041Z,1160.00
2018-11-01T17:20:47.041Z,1192.00
2018-11-01T17:21:47.046Z,1208.00
2018-11-01T17:22:47.083Z,1200.00
2018-11-01T17:23:47.043Z,1204.00
2018-11-01T17:24:47.107Z,1204.00
2018-11-01T17:25:47.021Z,1196.00
2018-11-01T17:26:47.023Z,1200.00
2018-11-01T17:27:47.053Z,1192.00
2018-11-01T17:28:47.022Z,1188.00
2018-11-01T17:29:47.030Z,1172.00
2018-11-01T17:30:46.981Z,1192.00
2018-11-01T17:31:46.993Z,1200.00
2018-11-01T17:32:47.005Z,1200.00
2018-11-01T17:33:47.000Z,1192.00
2018-11-01T17:34:46.998Z,1160.00
2018-11-01T17:35:46.965Z,1192.00
2018-11-01T17:36:46.979Z,1176.00
2018-11-01T17:37:46.987Z,1200.00
2018-11-01T17:38:46.972Z,1204.00
2018-11-01T17:39:47.155Z,1208.00
2018-11-01T17:40:46.963Z,1228.00
2018-11-01T17:41:46.936Z,1212.00
2018-11-01T17:42:46.945Z,1216.00
2018-11-01T17:43:46.996Z,1176.00
2018-11-01T17:44:46.983Z,1152.00
2018-11-01T17:45:47.238Z,1092.00
2018-11-01T17:46:46.927Z,1116.00
2018-11-01T17:47:46.935Z,1072.00
2018-11-01T17:48:46.958Z,1052.00
2018-11-01T17:49:46.911Z,1032.00
2018-11-01T17:50:46.919Z,1016.00
2018-11-01T17:51:46.903Z,1000.00
2018-11-01T17:52:46.902Z,1004.00
2018-11-01T17:53:46.909Z,1004.00
2018-11-01T17:54:46.884Z,1020.00
2018-11-01T17:55:46.885Z,1020.00
2018-11-01T17:56:46.894Z,1020.00
2018-11-01T17:57:46.904Z,1012.00
2018-11-01T17:58:46.865Z,1016.00
2018-11-01T17:59:46.888Z,1044.00
2018-11-01T18:00:46.861Z,1068.00
2018-11-01T18:01:46.989Z,1080.00
2018-11-01T18:02:46.930Z,1084.00
2018-11-01T18:03:46.856Z,1076.00
2018-11-01T18:04:46.837Z,1056.00
2018-11-01T18:05:46.834Z,1040.00
2018-11-01T18:06:46.938Z,1032.00
2018-11-01T18:07:46.833Z,996.00
2018-11-01T18:08:46.834Z,988.00
2018-11-01T18:09:46.839Z,1020.00
2018-11-01T18:10:46.801Z,1012.00
2018-11-01T18:11:47.073Z,1020.00
2018-11-01T18:12:46.808Z,1032.00
2018-11-01T18:13:46.821Z,1020.00
2018-11-01T18:14:46.785Z,1008.00
2018-11-01T18:15:46.789Z,1008.00
2018-11-01T18:16:46.899Z,1012.00
2018-11-01T18:17:46.811Z,1012.00
2018-11-01T18:18:46.788Z,1012.00
2018-11-01T18:19:46.775Z,988.00
2018-11-01T18:20:46.770Z,984.00
2018-11-01T18:21:46.791Z,976.00
2018-11-01T18:22:46.755Z,980.00
2018-11-01T18:23:46.792Z,972.00
2018-11-01T18:24:46.752Z,964.00
2018-11-01T18:25:46.842Z,1000.00
2018-11-01T18:26:47.042Z,1052.00
2018-11-01T18:27:46.798Z,1052.00
2018-11-01T18:28:46.806Z,1064.00
2018-11-01T18:29:46.732Z,1100.00
2018-11-01T18:30:46.793Z,1108.00
2018-11-01T18:31:46.844Z,1092.00
2018-11-01T18:32:46.903Z,1084.00
2018-11-01T18:33:46.757Z,1072.00
2018-11-01T18:34:46.879Z,1060.00
2018-11-01T18:35:46.722Z,1052.00
2018-11-01T18:36:46.707Z,1044.00
2018-11-01T18:37:46.864Z,1044.00
2018-11-01T18:38:46.697Z,1008.00
2018-11-01T18:39:46.700Z,1032.00
2018-11-01T18:40:46.676Z,1032.00
2018-11-01T18:41:46.685Z,1020.00
2018-11-01T18:42:46.835Z,1028.00
2018-11-01T18:43:46.674Z,1004.00
2018-11-01T18:44:46.673Z,1000.00
2018-11-01T18:45:46.667Z,976.00
2018-11-01T18:46:46.667Z,956.00
2018-11-01T18:47:46.641Z,952.00
2018-11-01T18:48:46.666Z,928.00
2018-11-01T18:49:46.639Z,900.00
2018-11-01T18:50:46.650Z,892.00
2018-11-01T18:51:46.647Z,884.00
2018-11-01T18:52:46.684Z,840.00
2018-11-01T18:53:46.874Z,844.00
2018-11-01T18:54:46.701Z,840.00
2018-11-01T18:55:46.603Z,796.00
2018-11-01T18:56:46.602Z,804.00
2018-11-01T18:57:46.597Z,780.00
2018-11-01T18:58:46.857Z,740.00
2018-11-01T18:59:46.603Z,696.00
2018-11-01T19:00:46.728Z,632.00
2018-11-01T19:01:46.643Z,616.00
2018-11-01T19:02:46.582Z,612.00
2018-11-01T19:03:46.574Z,640.00
2018-11-01T19:04:46.587Z,652.00
2018-11-01T19:05:46.567Z,680.00
2018-11-01T19:06:46.616Z,696.00
2018-11-01T19:07:46.549Z,712.00
2018-11-01T19:08:46.608Z,692.00
2018-11-01T19:09:46.560Z,644.00
2018-11-01T19:10:46.559Z,636.00
2018-11-01T19:11:46.541Z,612.00
2018-11-01T19:12:46.532Z,588.00
2018-11-01T19:13:46.638Z,592.00
2018-11-01T19:14:46.724Z,548.00
2018-11-01T19:15:46.525Z,536.00
2018-11-01T19:16:46.505Z,520.00
2018-11-01T19:17:46.572Z,520.00
2018-11-01T19:18:46.487Z,520.00
2018-11-01T19:19:46.624Z,512.00
2018-11-01T19:20:46.488Z,512.00
2018-11-01T19:21:46.568Z,508.00
2018-11-01T19:22:46.488Z,504.00
2018-11-01T19:23:46.492Z,496.00
2018-11-01T19:24:46.485Z,476.00
2018-11-01T19:25:46.596Z,468.00
2018-11-01T19:26:46.567Z,436.00
2018-11-01T19:27:46.467Z,424.00
2018-11-01T19:28:46.456Z,412.00
2018-11-01T19:29:46.470Z,420.00
2018-11-01T19:30:46.536Z,504.00
2018-11-01T19:31:46.435Z,456.00
2018-11-01T19:32:46.483Z,456.00
2018-11-01T19:33:46.463Z,428.00
2018-11-01T19:34:46.426Z,412.00
2018-11-01T19:35:46.425Z,404.00
2018-11-01T19:36:46.421Z,420.00
2018-11-01T19:37:46.458Z,436.00
2018-11-01T19:38:46.402Z,444.00
2018-11-01T19:39:46.461Z,428.00
2018-11-01T19:40:46.409Z,432.00
2018-11-01T19:41:46.484Z,428.00
2018-11-01T19:42:46.383Z,684.00
2018-11-01T19:43:46.390Z,424.00
2018-11-01T19:44:46.380Z,404.00
2018-11-01T19:45:46.418Z,380.00
2018-11-01T19:46:46.374Z,344.00
2018-11-01T19:47:46.361Z,296.00
2018-11-01T19:48:46.354Z,284.00
2018-11-01T19:49:46.401Z,272.00
2018-11-01T19:50:46.352Z,292.00
2018-11-01T19:51:46.332Z,360.00
2018-11-01T19:52:46.337Z,464.00
2018-11-01T19:53:46.317Z,552.00
2018-11-01T19:54:46.317Z,480.00
2018-11-01T19:55:46.356Z,468.00
2018-11-01T19:56:46.303Z,452.00
2018-11-01T19:57:46.288Z,468.00
2018-11-01T19:58:46.314Z,536.00
2018-11-01T19:59:46.296Z,632.00
2018-11-01T20:00:46.287Z,420.00
2018-11-01T20:01:46.295Z,444.00
2018-11-01T20:02:46.315Z,328.00
2018-11-01T20:03:46.254Z,276.00
2018-11-01T20:04:46.253Z,268.00
2018-11-01T20:05:46.246Z,372.00
2018-11-01T20:06:46.243Z,420.00
2018-11-01T20:07:46.250Z,476.00
2018-11-01T20:08:46.262Z,508.00
2018-11-01T20:09:46.224Z,448.00
2018-11-01T20:10:46.239Z,488.00
2018-11-01T20:11:46.248Z,452.00
2018-11-01T20:12:46.212Z,440.00
2018-11-01T20:13:46.200Z,376.00
2018-11-01T20:14:46.329Z,336.00
2018-11-01T20:15:46.218Z,336.00
2018-11-01T20:16:46.185Z,312.00
2018-11-01T20:17:46.193Z,232.00
2018-11-01T20:18:46.257Z,192.00
2018-11-01T20:19:46.303Z,168.00
2018-11-01T20:20:46.147Z,160.00
2018-11-01T20:21:46.221Z,152.00
2018-11-01T20:22:46.154Z,148.00
2018-11-01T20:23:46.188Z,144.00
2018-11-01T20:24:46.146Z,144.00
2018-11-01T20:25:46.193Z,156.00
2018-11-01T20:26:46.135Z,148.00
2018-11-01T20:27:46.148Z,148.00
2018-11-01T20:28:46.115Z,132.00
2018-11-01T20:29:46.114Z,120.00
2018-11-01T20:30:46.130Z,112.00
2018-11-01T20:31:46.179Z,108.00
2018-11-01T20:32:46.099Z,104.00
2018-11-01T20:33:46.229Z,96.00
2018-11-01T20:34:46.065Z,88.00
2018-11-01T20:35:46.096Z,84.00
2018-11-01T20:36:46.076Z,80.00
2018-11-01T20:37:46.127Z,72.00
2018-11-01T20:38:46.309Z,72.00
2018-11-01T20:39:46.046Z,68.00
2018-11-01T20:40:46.035Z,68.00
2018-11-01T20:41:46.042Z,68.00
2018-11-01T20:42:46.042Z,64.00
2018-11-01T20:43:46.291Z,64.00
2018-11-01T20:44:46.018Z,68.00
2018-11-01T20:45:46.001Z,72.00
2018-11-01T20:46:45.995Z,72.00
2018-11-01T20:47:46.009Z,76.00
2018-11-01T20:48:46.006Z,80.00
2018-11-01T20:49:45.987Z,80.00
2018-11-01T20:50:46.006Z,80.00
2018-11-01T20:51:45.975Z,80.00
2018-11-01T20:52:45.976Z,80.00
2018-11-01T20:53:45.961Z,76.00
2018-11-01T20:54:46.192Z,72.00
2018-11-01T20:55:45.971Z,72.00
2018-11-01T20:56:45.927Z,68.00
2018-11-01T20:57:46.109Z,64.00
2018-11-01T20:58:45.939Z,60.00
2018-11-01T20:59:46.031Z,52.00
2018-11-01T21:00:45.971Z,52.00
2018-11-01T21:01:45.897Z,48.00
2018-11-01T21:02:45.891Z,44.00
2018-11-01T21:03:45.899Z,44.00
2018-11-01T21:04:45.906Z,36.00
2018-11-01T21:05:45.894Z,36.00
2018-11-01T21:06:45.870Z,32.00
2018-11-01T21:07:45.880Z,32.00
2018-11-01T21:08:45.875Z,28.00
2018-11-01T21:09:45.852Z,24.00
2018-11-01T21:10:46.143Z,24.00
2018-11-01T21:11:46.114Z,20.00
2018-11-01T21:12:45.918Z,16.00
2018-11-01T21:13:45.838Z,16.00
2018-11-01T21:14:45.855Z,12.00
2018-11-01T21:15:45.942Z,12.00
2018-11-01T21:16:45.887Z,12.00
2018-11-01T21:17:45.811Z,12.00
2018-11-01T21:18:45.845Z,8.00
2018-11-01T21:19:45.789Z,8.00
2018-11-01T21:20:46.118Z,8.00
2018-11-01T21:21:45.788Z,8.00
2018-11-01T21:22:45.771Z,8.00
2018-11-01T21:23:45.788Z,4.00
2018-11-01T21:24:47.862Z,0.00
2018-11-01T21:25:45.758Z,4.00
2018-11-01T21:26:45.735Z,4.00
2018-11-01T21:27:45.742Z,0.00
2018-11-01T21:28:45.719Z,0.00
2018-11-01T21:29:45.779Z,0.00
2018-11-01T21:30:45.728Z,12.00
2018-11-01T21:31:45.724Z,8.00
2018-11-01T21:32:45.757Z,8.00
2018-11-01T21:33:45.702Z,12.00
2018-11-01T21:34:45.713Z,12.00
2018-11-01T21:35:45.728Z,8.00
2018-11-01T21:36:45.685Z,8.00
2018-11-01T21:37:45.691Z,8.00
2018-11-01T21:38:45.723Z,8.00
2018-11-01T21:39:45.648Z,8.00
2018-11-01T21:40:45.713Z,8.00
2018-11-01T21:41:45.634Z,8.00
2018-11-01T21:42:45.935Z,8.00
2018-11-01T21:43:45.628Z,8.00
2018-11-01T21:44:45.699Z,8.00
2018-11-01T21:45:45.639Z,8.00
2018-11-01T21:46:45.629Z,8.00
2018-11-01T21:47:45.615Z,8.00
2018-11-01T21:48:45.609Z,8.00
2018-11-01T21:49:45.662Z,8.00
2018-11-01T21:50:45.602Z,8.00
2018-11-01T21:51:45.587Z,8.00
2018-11-01T21:52:45.600Z,8.00
2018-11-01T21:53:45.627Z,8.00
2018-11-01T21:54:45.579Z,8.00
2018-11-01T21:55:45.545Z,8.00
2018-11-01T21:56:45.550Z,8.00
2018-11-01T21:57:45.553Z,8.00
2018-11-01T21:58:45.646Z,8.00
2018-11-01T21:59:45.523Z,8.00
2018-11-01T22:00:45.544Z,8.00
2018-11-01T22:01:45.568Z,8.00
2018-11-01T22:02:45.532Z,8.00
2018-11-01T22:03:45.622Z,8.00
2018-11-01T22:04:45.552Z,8.00
2018-11-01T22:05:45.513Z,8.00
2018-11-01T22:06:45.510Z,8.00
2018-11-01T22:07:45.487Z,8.00
2018-11-01T22:08:45.477Z,8.00
2018-11-01T22:09:45.716Z,8.00
2018-11-01T22:10:45.525Z,8.00
2018-11-01T22:11:45.483Z,8.00
2018-11-01T22:12:45.467Z,8.00
2018-11-01T22:13:45.445Z,8.00
2018-11-01T22:14:45.438Z,8.00
2018-11-01T22:15:45.697Z,8.00
2018-11-01T22:16:45.437Z,8.00
2018-11-01T22:17:45.423Z,8.00
2018-11-01T22:18:45.400Z,8.00
2018-11-01T22:19:45.440Z,8.00
2018-11-01T22:20:45.510Z,8.00
2018-11-01T22:21:45.398Z,8.00
2018-11-01T22:22:45.388Z,8.00
2018-11-01T22:23:45.379Z,8.00
2018-11-01T22:24:45.378Z,8.00
2018-11-01T22:25:45.371Z,8.00
2018-11-01T22:26:45.459Z,8.00
2018-11-01T22:27:45.379Z,8.00
2018-11-01T22:28:45.464Z,8.00
2018-11-01T22:29:45.338Z,8.00
2018-11-01T22:30:45.315Z,8.00
2018-11-01T22:31:45.316Z,8.00
2018-11-01T22:32:45.336Z,8.00
2018-11-01T22:33:45.313Z,8.00
2018-11-01T22:34:45.320Z,8.00
2018-11-01T22:35:45.312Z,8.00
2018-11-01T22:36:45.443Z,8.00
2018-11-01T22:37:45.278Z,8.00
2018-11-01T22:38:45.413Z,8.00
2018-11-01T22:39:45.329Z,8.00
2018-11-01T22:40:45.274Z,8.00
2018-11-01T22:41:45.553Z,8.00
2018-11-01T22:42:45.258Z,8.00
2018-11-01T22:43:45.245Z,8.00
2018-11-01T22:44:45.253Z,8.00
2018-11-01T22:45:45.228Z,8.00
2018-11-01T22:46:45.222Z,8.00
2018-11-01T22:47:45.224Z,8.00
2018-11-01T22:48:45.211Z,8.00
2018-11-01T22:49:45.242Z,8.00
2018-11-01T22:50:45.195Z,8.00
2018-11-01T22:51:45.212Z,8.00
2018-11-01T22:52:45.332Z,8.00
2018-11-01T22:53:45.202Z,8.00
2018-11-01T22:54:45.164Z,8.00
2018-11-01T22:55:45.190Z,8.00
2018-11-01T22:56:45.141Z,8.00
2018-11-01T22:57:45.174Z,8.00
2018-11-01T22:58:45.265Z,8.00
2018-11-01T22:59:45.184Z,8.00
2018-11-01T23:00:45.145Z,8.00
2018-11-01T23:01:45.126Z,8.00
2018-11-01T23:02:45.121Z,8.00
2018-11-01T23:03:45.231Z,8.00
2018-11-01T23:04:45.105Z,8.00
2018-11-01T23:05:45.110Z,8.00
2018-11-01T23:06:45.113Z,8.00
2018-11-01T23:07:45.099Z,8.00
2018-11-01T23:08:45.066Z,8.00
2018-11-01T23:09:45.072Z,8.00
2018-11-01T23:10:45.084Z,8.00
2018-11-01T23:11:45.057Z,8.00
2018-11-01T23:12:45.043Z,8.00
2018-11-01T23:13:45.059Z,8.00
2018-11-01T23:14:45.084Z,8.00
2018-11-01T23:15:45.054Z,8.00
2018-11-01T23:16:45.064Z,8.00
2018-11-01T23:17:45.022Z,8.00
2018-11-01T23:18:45.005Z,8.00
2018-11-01T23:19:45.226Z,8.00
2018-11-01T23:20:44.999Z,8.00
2018-11-01T23:21:45.008Z,8.00
2018-11-01T23:22:45.006Z,8.00
2018-11-01T23:23:44.973Z,8.00
2018-11-01T23:24:45.271Z,8.00
2018-11-01T23:25:44.973Z,8.00
2018-11-01T23:26:44.986Z,8.00
2018-11-01T23:27:44.931Z,8.00
2018-11-01T23:28:44.959Z,8.00
2018-11-01T23:29:44.951Z,8.00
2018-11-01T23:30:45.240Z,8.00
2018-11-01T23:31:44.934Z,8.00
2018-11-01T23:32:44.919Z,8.00
2018-11-01T23:33:44.929Z,8.00
2018-11-01T23:34:44.902Z,8.00
2018-11-01T23:35:44.885Z,8.00
2018-11-01T23:36:45.336Z,8.00
2018-11-01T23:37:44.881Z,8.00
2018-11-01T23:38:44.867Z,8.00
2018-11-01T23:39:44.877Z,8.00
2018-11-01T23:40:44.855Z,8.00
2018-11-01T23:41:44.861Z,8.00
2018-11-01T23:42:44.840Z,8.00
2018-11-01T23:43:44.852Z,8.00
2018-11-01T23:44:44.847Z,8.00
2018-11-01T23:45:44.829Z,8.00
2018-11-01T23:46:44.819Z,8.00
2018-11-01T23:47:44.815Z,8.00
2018-11-01T23:48:44.820Z,8.00
2018-11-01T23:49:44.843Z,8.00
2018-11-01T23:50:44.812Z,8.00
2018-11-01T23:51:44.800Z,8.00
2018-11-01T23:52:44.766Z,8.00
2018-11-01T23:53:44.773Z,8.00
2018-11-01T23:54:44.773Z,8.00
2018-11-01T23:55:44.772Z,8.00
2018-11-01T23:56:44.760Z,8.00
2018-11-01T23:57:45.058Z,8.00
2018-11-01T23:58:44.721Z,8.00
2018-11-01T23:59:44.738Z,8.00
